Time;durP1;ratioP1;P1;durP2;ratioP2;P2;SDS_P1;SDS_P2;PMS_P1;PMS_P2;Temp;Humidity;BMP_temperature;BMP_pressure;BME280_temperature;BME280_humidity;BME280_pressure;Samples;Min_cycle;Max_cycle;Signal;HPM_P1;HPM_P2
2023/05/17 00:00:12;;;;;;;;;;;12.10;99.30;12.40;99610.00;;;;340399;28;91529;-96
2023/05/17 00:00:24;;;;;;;;;;;12.10;99.30;12.40;99619.00;;;;340780;28;82609;-95
2023/05/17 00:00:36;;;;;;;;;;;12.10;99.20;12.40;99619.00;;;;343074;28;89101;-96
2023/05/17 00:00:48;;;;;;;;;;;12.10;99.40;12.40;99634.00;;;;342175;28;82485;-95
2023/05/17 00:01:00;;;;;;;;;;;12.10;99.50;12.40;99613.00;;;;343006;28;89321;-94
2023/05/17 00:01:12;;;;;;;;;;;12.10;99.50;12.40;99621.00;;;;344981;28;82576;-96
2023/05/17 00:01:25;;;;;;;;;;;12.10;99.40;12.40;99620.00;;;;343470;28;90289;-96
2023/05/17 00:01:37;;;;;;;;;;;12.10;99.50;12.40;99621.00;;;;343333;28;82607;-96
2023/05/17 00:01:49;;;;;;;;;;;12.10;99.50;12.40;99614.00;;;;343139;28;88723;-96
2023/05/17 00:02:01;;;;;;;;;;;12.10;99.50;12.40;99615.00;;;;339505;28;83563;-96
2023/05/17 00:02:13;;;;;;;;;;;12.10;99.50;12.40;99617.00;;;;340540;28;88089;-95
2023/05/17 00:02:25;;;;;;;;;;;12.10;99.40;12.30;99614.00;;;;342305;28;82589;-96
2023/05/17 00:02:37;;;;;;;;;;;12.10;99.30;12.40;99624.00;;;;341563;28;88905;-96
2023/05/17 00:02:49;;;;;;;;;;;12.10;99.30;12.30;99612.00;;;;340579;28;83471;-96
2023/05/17 00:03:01;;;;;;;;;;;12.10;99.30;12.40;99619.00;;;;340455;28;89832;-96
2023/05/17 00:03:14;;;;;;;;;;;12.10;99.40;12.40;99624.00;;;;343626;28;82445;-96
2023/05/17 00:03:26;;;;;;;;;;;12.00;99.50;12.40;99626.00;;;;341661;28;88337;-96
2023/05/17 00:03:38;;;;;;;;;;;12.00;99.50;12.40;99620.00;;;;343425;28;82478;-96
2023/05/17 00:03:53;;;;;;;;;;;12.00;99.50;12.40;99622.00;;;;341846;28;90951;-95
2023/05/17 00:04:04;;;;;;;;;;;12.10;99.60;12.40;99615.00;;;;343662;28;82461;-96
2023/05/17 00:04:17;;;;;;;;;;;12.10;99.40;12.40;99615.00;;;;343505;28;90136;-96
2023/05/17 00:04:29;;;;;;;;;;;12.10;99.40;12.40;99622.00;;;;341633;28;82571;-96
2023/05/17 00:04:43;;;;;;;;;;;12.10;99.40;12.40;99617.00;;;;341783;28;90649;-96
2023/05/17 00:04:56;;;;;;;;;;;12.00;99.50;12.40;99628.00;;;;342394;28;83083;-96
2023/05/17 00:05:10;;;;;;;;;;;12.10;99.60;12.30;99621.00;;;;339264;28;89906;-96
2023/05/17 00:05:22;;;;;;;;;;;12.10;99.50;12.40;99609.00;;;;341952;28;83499;-93
2023/05/17 00:05:34;;;;;;;;;;;12.00;99.50;12.40;99620.00;;;;341946;28;90389;-95
2023/05/17 00:05:46;;;;;;;;;;;12.10;99.40;12.40;99616.00;;;;344827;28;82455;-96
2023/05/17 00:05:59;;;;;;;;;;;12.10;99.40;12.40;99615.00;;;;343198;28;90136;-95
2023/05/17 00:06:11;;;;;;;;;;;12.10;99.40;12.30;99618.00;;;;342226;28;82489;-96
2023/05/17 00:06:23;;;;;;;;;;;12.10;99.40;12.40;99621.00;;;;341768;28;91080;-96
2023/05/17 00:06:35;;;;;;;;;;;12.10;99.50;12.30;99625.00;;;;343631;28;82559;-95
2023/05/17 00:06:47;;;;;;;;;;;12.10;99.40;12.40;99606.00;;;;341925;28;90503;-94
2023/05/17 00:06:59;;;;;;;;;;;12.00;99.40;12.30;99611.00;;;;340867;28;82537;-96
2023/05/17 00:07:11;;;;;;;;;;;12.00;99.20;12.30;99612.00;;;;343435;28;90925;-95
2023/05/17 00:07:24;;;;;;;;;;;12.00;99.30;12.30;99612.00;;;;342347;28;82576;-94
2023/05/17 00:07:36;;;;;;;;;;;12.00;99.40;12.30;99614.00;;;;341735;28;90875;-95
2023/05/17 00:07:49;;;;;;;;;;;12.00;99.30;12.30;99616.00;;;;342304;28;82330;-94
2023/05/17 00:08:01;;;;;;;;;;;12.00;99.30;12.30;99621.00;;;;340760;28;90697;-96
2023/05/17 00:08:13;;;;;;;;;;;12.00;99.40;12.30;99615.00;;;;342577;28;82425;-95
2023/05/17 00:08:25;;;;;;;;;;;12.00;99.40;12.30;99628.00;;;;344916;28;91641;-95
2023/05/17 00:08:37;;;;;;;;;;;12.00;99.40;12.30;99616.00;;;;341189;28;82542;-95
2023/05/17 00:08:49;;;;;;;;;;;12.00;99.40;12.30;99617.00;;;;340738;28;90113;-94
2023/05/17 00:09:02;;;;;;;;;;;12.00;99.30;12.30;99626.00;;;;343905;28;82572;-95
2023/05/17 00:09:15;;;;;;;;;;;12.00;99.30;12.30;99631.00;;;;342249;28;91903;-95
2023/05/17 00:09:28;;;;;;;;;;;12.00;99.30;12.30;99610.00;;;;341147;28;82503;-96
2023/05/17 00:09:39;;;;;;;;;;;11.90;99.40;12.30;99619.00;;;;343696;28;90677;-96
2023/05/17 00:09:51;;;;;;;;;;;12.00;99.50;12.30;99625.00;;;;342688;28;82475;-95
2023/05/17 00:10:04;;;;;;;;;;;11.90;99.50;12.30;99615.00;;;;342141;28;90031;-96
2023/05/17 00:10:16;;;;;;;;;;;12.00;99.60;12.30;99621.00;;;;346193;28;82459;-96
2023/05/17 00:10:28;;;;;;;;;;;12.00;99.60;12.30;99620.00;;;;342128;28;90834;-96
2023/05/17 00:10:42;;;;;;;;;;;12.00;99.50;12.30;99622.00;;;;343906;28;82515;-95
2023/05/17 00:10:54;;;;;;;;;;;12.00;99.50;12.30;99615.00;;;;340664;28;89404;-96
2023/05/17 00:11:06;;;;;;;;;;;12.00;99.50;12.30;99614.00;;;;342346;28;82538;-95
2023/05/17 00:11:18;;;;;;;;;;;12.00;99.50;12.30;99620.00;;;;340700;28;90276;-96
2023/05/17 00:11:30;;;;;;;;;;;12.00;99.40;12.30;99616.00;;;;339558;28;82406;-95
2023/05/17 00:11:42;;;;;;;;;;;12.00;99.50;12.30;99623.00;;;;343288;28;90751;-96
2023/05/17 00:11:54;;;;;;;;;;;12.00;99.60;12.30;99616.00;;;;345205;28;82380;-96
2023/05/17 00:12:06;;;;;;;;;;;12.00;99.50;12.30;99623.00;;;;341980;28;89292;-96
2023/05/17 00:12:18;;;;;;;;;;;12.00;99.40;12.30;99612.00;;;;342538;28;82354;-94
2023/05/17 00:12:31;;;;;;;;;;;12.00;99.50;12.30;99602.00;;;;341634;28;89314;-95
2023/05/17 00:12:43;;;;;;;;;;;12.00;99.40;12.30;99617.00;;;;340914;28;82561;-95
2023/05/17 00:12:54;;;;;;;;;;;12.00;99.30;12.30;99613.00;;;;340706;28;90739;-95
2023/05/17 00:13:07;;;;;;;;;;;12.00;99.30;12.30;99618.00;;;;345074;28;82644;-95
2023/05/17 00:13:19;;;;;;;;;;;12.00;99.40;12.30;99605.00;;;;342146;28;89999;-95
2023/05/17 00:13:31;;;;;;;;;;;12.00;99.30;12.30;99619.00;;;;345140;28;83351;-95
2023/05/17 00:13:44;;;;;;;;;;;12.00;99.20;12.30;99614.00;;;;341938;28;90914;-95
2023/05/17 00:13:56;;;;;;;;;;;12.00;99.30;12.40;99627.00;;;;343830;28;82480;-95
2023/05/17 00:14:07;;;;;;;;;;;12.00;99.30;12.30;99612.00;;;;343281;28;90738;-94
2023/05/17 00:14:19;;;;;;;;;;;12.00;99.30;12.30;99614.00;;;;340813;28;82511;-94
2023/05/17 00:14:31;;;;;;;;;;;12.00;99.40;12.30;99603.00;;;;342994;28;90589;-95
2023/05/17 00:14:43;;;;;;;;;;;12.00;99.40;12.40;99613.00;;;;342406;28;82466;-96
2023/05/17 00:14:55;;;;;;;;;;;12.00;99.40;12.40;99603.00;;;;340697;28;87198;-96
2023/05/17 00:15:08;;;;;;;;;;;12.00;99.40;12.30;99614.00;;;;340876;28;82535;-95
2023/05/17 00:15:20;;;;;;;;;;;12.00;99.40;12.30;99604.00;;;;341798;28;90960;-96
2023/05/17 00:15:32;;;;;;;;;;;12.00;99.30;12.30;99614.00;;;;343574;28;82302;-96
2023/05/17 00:15:44;;;;;;;;;;;12.00;99.30;12.30;99609.00;;;;342103;28;88773;-95
2023/05/17 00:15:56;;;;;;;;;;;12.00;99.30;12.40;99612.00;;;;341018;28;82580;-96
2023/05/17 00:16:08;;;;;;;;;;;12.00;99.40;12.30;99605.00;;;;342271;28;90196;-96
2023/05/17 00:16:21;;;;;;;;;;;12.00;99.40;12.30;99608.00;;;;342463;28;83766;-95
2023/05/17 00:16:33;;;;;;;;;;;12.00;99.40;12.30;99608.00;;;;343038;28;89241;-94
2023/05/17 00:16:45;;;;;;;;;;;12.00;99.40;12.30;99613.00;;;;342349;28;83387;-95
2023/05/17 00:16:57;;;;;;;;;;;12.00;99.40;12.40;99603.00;;;;343289;28;90831;-95
2023/05/17 00:17:09;;;;;;;;;;;12.00;99.50;12.40;99604.00;;;;342591;28;82658;-95
2023/05/17 00:17:23;;;;;;;;;;;12.00;99.40;12.30;99611.00;;;;339477;28;92365;-95
2023/05/17 00:17:36;;;;;;;;;;;12.00;99.30;12.30;99612.00;;;;340814;28;82633;-94
2023/05/17 00:17:49;;;;;;;;;;;12.00;99.30;12.30;99610.00;;;;338115;28;90607;-96
2023/05/17 00:18:01;;;;;;;;;;;12.00;99.30;12.30;99591.00;;;;341259;28;82396;-95
2023/05/17 00:18:13;;;;;;;;;;;12.00;99.40;12.30;99603.00;;;;343268;28;90751;-95
2023/05/17 00:18:25;;;;;;;;;;;12.00;99.50;12.40;99605.00;;;;342366;28;83531;-95
2023/05/17 00:18:38;;;;;;;;;;;12.00;99.60;12.30;99608.00;;;;341921;28;91358;-96
2023/05/17 00:18:50;;;;;;;;;;;12.00;99.60;12.30;99617.00;;;;343796;28;82480;-96
2023/05/17 00:19:02;;;;;;;;;;;12.00;99.50;12.40;99594.00;;;;339392;28;90952;-95
2023/05/17 00:19:14;;;;;;;;;;;12.00;99.40;12.30;99601.00;;;;341155;28;82495;-94
2023/05/17 00:19:26;;;;;;;;;;;12.00;99.30;12.30;99608.00;;;;345040;28;87957;-95
2023/05/17 00:19:39;;;;;;;;;;;12.00;99.30;12.30;99615.00;;;;342360;28;82512;-95
2023/05/17 00:19:50;;;;;;;;;;;12.00;99.40;12.30;99602.00;;;;342016;28;91872;-95
2023/05/17 00:20:04;;;;;;;;;;;12.00;99.30;12.30;99584.00;;;;342233;28;82556;-93
2023/05/17 00:20:16;;;;;;;;;;;12.00;99.30;12.30;99600.00;;;;341731;28;90220;-95
2023/05/17 00:20:28;;;;;;;;;;;12.00;99.30;12.30;99609.00;;;;342526;28;82462;-95
2023/05/17 00:20:41;;;;;;;;;;;12.00;99.30;12.30;99606.00;;;;340497;28;90492;-95
2023/05/17 00:20:52;;;;;;;;;;;12.00;99.30;12.30;99601.00;;;;342488;28;82457;-95
2023/05/17 00:21:05;;;;;;;;;;;12.00;99.30;12.30;99605.00;;;;344799;28;90695;-94
2023/05/17 00:21:17;;;;;;;;;;;12.00;99.30;12.30;99605.00;;;;345217;28;83476;-94
2023/05/17 00:21:30;;;;;;;;;;;12.00;99.40;12.30;99600.00;;;;342051;28;90786;-95
2023/05/17 00:21:42;;;;;;;;;;;12.00;99.40;12.30;99603.00;;;;343620;28;82562;-94
2023/05/17 00:21:54;;;;;;;;;;;11.90;99.40;12.20;99613.00;;;;340739;28;89861;-94
2023/05/17 00:22:06;;;;;;;;;;;12.00;99.40;12.20;99599.00;;;;342197;28;82679;-94
2023/05/17 00:22:18;;;;;;;;;;;12.00;99.30;12.30;99605.00;;;;339134;28;91244;-94
2023/05/17 00:22:30;;;;;;;;;;;12.00;99.40;12.20;99605.00;;;;340703;28;82535;-95
2023/05/17 00:22:44;;;;;;;;;;;12.00;99.30;12.20;99602.00;;;;343192;28;92070;-94
2023/05/17 00:22:56;;;;;;;;;;;12.00;99.30;12.20;99606.00;;;;340882;28;82427;-94
2023/05/17 00:23:07;;;;;;;;;;;12.00;99.40;12.30;99605.00;;;;341233;28;90868;-95
2023/05/17 00:23:19;;;;;;;;;;;11.90;99.40;12.20;99610.00;;;;343275;28;82446;-96
2023/05/17 00:23:31;;;;;;;;;;;11.90;99.40;12.30;99605.00;;;;343000;28;89510;-95
2023/05/17 00:23:43;;;;;;;;;;;12.00;99.50;12.30;99605.00;;;;346117;28;82534;-95
2023/05/17 00:23:55;;;;;;;;;;;11.90;99.40;12.30;99603.00;;;;341734;28;90220;-95
2023/05/17 00:24:08;;;;;;;;;;;11.90;99.30;12.30;99604.00;;;;342057;28;82559;-95
2023/05/17 00:24:20;;;;;;;;;;;11.90;99.30;12.30;99611.00;;;;341511;28;89856;-96
2023/05/17 00:24:32;;;;;;;;;;;11.90;99.40;12.30;99610.00;;;;343719;28;82497;-94
2023/05/17 00:24:44;;;;;;;;;;;11.90;99.40;12.30;99609.00;;;;343860;28;90575;-96
2023/05/17 00:24:56;;;;;;;;;;;12.00;99.40;12.30;99614.00;;;;340442;28;82370;-94
2023/05/17 00:25:08;;;;;;;;;;;12.00;99.40;12.30;99600.00;;;;342668;28;88061;-95
2023/05/17 00:25:20;;;;;;;;;;;12.00;99.30;12.30;99610.00;;;;341826;28;82466;-95
2023/05/17 00:25:32;;;;;;;;;;;11.90;99.30;12.20;99612.00;;;;341412;28;91488;-95
2023/05/17 00:25:45;;;;;;;;;;;12.00;99.40;12.20;99608.00;;;;345838;28;82574;-95
2023/05/17 00:25:57;;;;;;;;;;;12.00;99.40;12.20;99606.00;;;;342908;28;89809;-95
2023/05/17 00:26:09;;;;;;;;;;;12.00;99.40;12.30;99601.00;;;;343263;28;82576;-95
2023/05/17 00:26:21;;;;;;;;;;;11.90;99.40;12.30;99596.00;;;;341098;28;91771;-94
2023/05/17 00:26:32;;;;;;;;;;;11.90;99.50;12.30;99607.00;;;;343352;28;82579;-95
2023/05/17 00:26:44;;;;;;;;;;;11.90;99.40;12.30;99624.00;;;;344542;28;91569;-93
2023/05/17 00:26:56;;;;;;;;;;;12.00;99.40;12.20;99596.00;;;;344646;28;82499;-93
2023/05/17 00:27:09;;;;;;;;;;;11.90;99.50;12.30;99607.00;;;;339512;28;88381;-95
2023/05/17 00:27:20;;;;;;;;;;;11.90;99.50;12.30;99596.00;;;;337832;28;82610;-93
2023/05/17 00:27:32;;;;;;;;;;;11.90;99.40;12.30;99605.00;;;;337614;28;89771;-93
2023/05/17 00:27:44;;;;;;;;;;;11.90;99.40;12.30;99610.00;;;;334509;28;82554;-93
2023/05/17 00:27:56;;;;;;;;;;;11.90;99.40;12.30;99608.00;;;;336408;28;89624;-94
2023/05/17 00:28:08;;;;;;;;;;;11.90;99.40;12.30;99614.00;;;;338161;28;82613;-95
2023/05/17 00:28:20;;;;;;;;;;;11.90;99.50;12.30;99601.00;;;;337680;28;89914;-94
2023/05/17 00:28:32;;;;;;;;;;;11.90;99.50;12.30;99605.00;;;;338158;28;82477;-95
2023/05/17 00:28:44;;;;;;;;;;;12.00;99.50;12.30;99606.00;;;;336476;28;90636;-95
2023/05/17 00:28:56;;;;;;;;;;;11.90;99.40;12.30;99611.00;;;;335462;29;82507;-95
2023/05/17 00:29:08;;;;;;;;;;;11.90;99.50;12.20;99602.00;;;;337832;28;90370;-95
2023/05/17 00:29:20;;;;;;;;;;;11.90;99.40;12.20;99589.00;;;;343711;28;82480;-94
2023/05/17 00:29:32;;;;;;;;;;;11.90;99.50;12.30;99616.00;;;;341899;28;90152;-96
2023/05/17 00:29:44;;;;;;;;;;;11.90;99.50;12.30;99611.00;;;;336874;29;82486;-95
2023/05/17 00:29:56;;;;;;;;;;;11.90;99.80;12.20;99613.00;;;;336409;28;87940;-95
2023/05/17 00:30:08;;;;;;;;;;;11.90;99.40;12.20;99605.00;;;;336855;29;82520;-96
2023/05/17 00:30:20;;;;;;;;;;;11.90;99.50;12.30;99604.00;;;;333747;29;92013;-95
2023/05/17 00:30:32;;;;;;;;;;;11.90;99.50;12.30;99611.00;;;;336772;29;82387;-94
2023/05/17 00:30:44;;;;;;;;;;;11.90;99.50;12.30;99607.00;;;;335036;29;91523;-93
2023/05/17 00:30:56;;;;;;;;;;;11.90;99.50;12.30;99603.00;;;;336906;28;82573;-95
2023/05/17 00:31:07;;;;;;;;;;;11.90;99.50;12.30;99616.00;;;;335178;29;90093;-94
2023/05/17 00:31:19;;;;;;;;;;;11.90;99.50;12.30;99608.00;;;;343489;28;82633;-95
2023/05/17 00:31:31;;;;;;;;;;;12.00;99.60;12.30;99611.00;;;;343007;28;91693;-93
2023/05/17 00:31:43;;;;;;;;;;;11.90;99.40;12.30;99612.00;;;;336633;29;82553;-94
2023/05/17 00:31:55;;;;;;;;;;;11.90;99.50;12.30;99605.00;;;;337626;28;90509;-94
2023/05/17 00:32:08;;;;;;;;;;;11.90;99.40;12.30;99615.00;;;;336726;29;82526;-95
2023/05/17 00:32:20;;;;;;;;;;;11.90;99.40;12.30;99602.00;;;;336380;29;91182;-94
2023/05/17 00:32:32;;;;;;;;;;;11.90;99.50;12.30;99606.00;;;;338218;28;82486;-94
2023/05/17 00:32:45;;;;;;;;;;;11.90;99.50;12.20;99612.00;;;;337722;28;88615;-94
2023/05/17 00:32:57;;;;;;;;;;;11.90;99.50;12.20;99608.00;;;;336589;29;82541;-95
2023/05/17 00:33:09;;;;;;;;;;;11.90;99.50;12.20;99610.00;;;;333628;29;90412;-95
2023/05/17 00:33:21;;;;;;;;;;;11.90;99.50;12.20;99614.00;;;;336174;29;83397;-95
2023/05/17 00:33:33;;;;;;;;;;;11.90;99.50;12.20;99611.00;;;;335913;28;90053;-94
2023/05/17 00:33:46;;;;;;;;;;;11.90;99.60;12.20;99604.00;;;;333943;29;83361;-95
2023/05/17 00:33:58;;;;;;;;;;;11.90;99.60;12.30;99599.00;;;;333710;29;90374;-95
2023/05/17 00:34:10;;;;;;;;;;;11.90;99.60;12.30;99607.00;;;;335444;29;83337;-95
2023/05/17 00:34:22;;;;;;;;;;;11.90;99.60;12.30;99611.00;;;;335229;29;90554;-94
2023/05/17 00:34:34;;;;;;;;;;;11.90;99.60;12.20;99610.00;;;;336693;28;82522;-95
2023/05/17 00:34:45;;;;;;;;;;;11.90;99.50;12.30;99606.00;;;;336129;28;91013;-94
2023/05/17 00:34:57;;;;;;;;;;;11.90;99.50;12.30;99613.00;;;;337857;28;82563;-95
2023/05/17 00:35:09;;;;;;;;;;;11.90;99.50;12.20;99614.00;;;;334870;29;91781;-93
2023/05/17 00:35:21;;;;;;;;;;;11.90;99.50;12.20;99606.00;;;;335349;29;82485;-94
2023/05/17 00:35:33;;;;;;;;;;;11.90;99.60;12.30;99608.00;;;;333573;29;91063;-96
2023/05/17 00:35:45;;;;;;;;;;;11.90;99.60;12.30;99599.00;;;;337075;28;83472;-94
2023/05/17 00:35:57;;;;;;;;;;;11.90;99.80;12.30;99600.00;;;;336481;29;90126;-94
2023/05/17 00:36:09;;;;;;;;;;;11.90;99.60;12.30;99612.00;;;;335984;29;82554;-95
2023/05/17 00:36:21;;;;;;;;;;;11.90;99.70;12.20;99616.00;;;;337620;28;89731;-94
2023/05/17 00:36:33;;;;;;;;;;;11.90;99.60;12.30;99599.00;;;;336743;28;83374;-94
2023/05/17 00:36:45;;;;;;;;;;;11.90;99.60;12.30;99602.00;;;;336175;28;92593;-93
2023/05/17 00:36:57;;;;;;;;;;;11.90;99.60;12.20;99610.00;;;;336695;28;82636;-94
2023/05/17 00:37:09;;;;;;;;;;;11.90;99.50;12.30;99600.00;;;;335953;28;90365;-95
2023/05/17 00:37:21;;;;;;;;;;;11.90;99.50;12.20;99602.00;;;;339367;28;82588;-94
2023/05/17 00:37:33;;;;;;;;;;;11.90;99.40;12.30;99601.00;;;;337341;28;91780;-94
2023/05/17 00:37:46;;;;;;;;;;;11.90;99.50;12.30;99595.00;;;;336778;29;82424;-92
2023/05/17 00:37:58;;;;;;;;;;;11.90;99.60;12.20;99597.00;;;;338609;28;90056;-94
2023/05/17 00:38:10;;;;;;;;;;;11.90;99.60;12.20;99591.00;;;;335874;29;82523;-94
2023/05/17 00:38:22;;;;;;;;;;;11.90;99.70;12.20;99599.00;;;;335015;29;89491;-94
2023/05/17 00:38:34;;;;;;;;;;;11.90;99.50;12.20;99603.00;;;;334288;29;82506;-95
2023/05/17 00:38:46;;;;;;;;;;;11.90;99.50;12.20;99603.00;;;;332478;29;91917;-95
2023/05/17 00:38:58;;;;;;;;;;;11.90;99.50;12.20;99595.00;;;;334943;29;82636;-93
2023/05/17 00:39:10;;;;;;;;;;;11.90;99.50;12.20;99592.00;;;;333742;28;89509;-96
2023/05/17 00:39:22;;;;;;;;;;;11.90;99.60;12.30;99595.00;;;;334135;29;82532;-93
2023/05/17 00:39:34;;;;;;;;;;;11.90;99.60;12.30;99592.00;;;;335015;29;90546;-94
2023/05/17 00:39:46;;;;;;;;;;;11.90;99.60;12.20;99590.00;;;;335459;28;82648;-94
2023/05/17 00:39:58;;;;;;;;;;;11.90;99.50;12.20;99602.00;;;;336422;28;89983;-95
2023/05/17 00:40:11;;;;;;;;;;;11.90;99.50;12.30;99610.00;;;;334117;29;82482;-94
2023/05/17 00:40:23;;;;;;;;;;;11.90;99.60;12.30;99598.00;;;;336129;28;92105;-95
2023/05/17 00:40:35;;;;;;;;;;;11.90;99.50;12.20;99606.00;;;;335528;28;82577;-95
2023/05/17 00:40:48;;;;;;;;;;;11.90;99.50;12.20;99597.00;;;;333529;28;90088;-94
2023/05/17 00:41:00;;;;;;;;;;;11.90;99.60;12.30;99600.00;;;;336355;28;82613;-96
2023/05/17 00:41:12;;;;;;;;;;;11.90;99.50;12.20;99595.00;;;;341607;28;87219;-94
2023/05/17 00:41:24;;;;;;;;;;;11.90;99.50;12.20;99598.00;;;;340877;28;82485;-95
2023/05/17 00:41:36;;;;;;;;;;;11.90;99.50;12.20;99601.00;;;;334853;29;92019;-94
2023/05/17 00:41:48;;;;;;;;;;;11.90;99.50;12.20;99595.00;;;;335463;29;82609;-95
2023/05/17 00:42:01;;;;;;;;;;;11.90;99.50;12.20;99608.00;;;;333404;28;90328;-95
2023/05/17 00:42:13;;;;;;;;;;;11.90;99.50;12.20;99592.00;;;;336031;29;82482;-95
2023/05/17 00:42:25;;;;;;;;;;;11.90;99.40;12.20;99595.00;;;;336305;28;89627;-95
2023/05/17 00:42:37;;;;;;;;;;;11.90;99.40;12.20;99597.00;;;;337971;28;82572;-95
2023/05/17 00:42:49;;;;;;;;;;;11.90;99.50;12.20;99603.00;;;;335980;28;90251;-95
2023/05/17 00:43:01;;;;;;;;;;;11.90;99.50;12.20;99595.00;;;;338408;28;82580;-96
2023/05/17 00:43:13;;;;;;;;;;;11.90;99.50;12.20;99591.00;;;;336195;28;89097;-94
2023/05/17 00:43:25;;;;;;;;;;;11.90;99.50;12.10;99601.00;;;;335530;29;82538;-94
2023/05/17 00:43:37;;;;;;;;;;;11.90;99.40;12.20;99592.00;;;;335701;28;89517;-95
2023/05/17 00:43:49;;;;;;;;;;;11.90;99.50;12.10;99597.00;;;;336759;28;82492;-95
2023/05/17 00:44:01;;;;;;;;;;;11.90;99.50;12.20;99598.00;;;;333717;29;90551;-96
2023/05/17 00:44:13;;;;;;;;;;;11.90;99.40;12.10;99603.00;;;;335453;29;82426;-95
2023/05/17 00:44:25;;;;;;;;;;;11.90;99.40;12.20;99602.00;;;;336373;29;89809;-95
2023/05/17 00:44:37;;;;;;;;;;;11.90;99.50;12.20;99597.00;;;;335480;29;82395;-94
2023/05/17 00:44:49;;;;;;;;;;;11.80;99.50;12.10;99603.00;;;;332727;29;89035;-94
2023/05/17 00:45:01;;;;;;;;;;;11.80;99.30;12.20;99597.00;;;;336714;28;82499;-95
2023/05/17 00:45:13;;;;;;;;;;;11.90;99.40;12.20;99593.00;;;;336145;28;89529;-95
2023/05/17 00:45:25;;;;;;;;;;;11.80;99.50;12.20;99592.00;;;;335551;29;82522;-95
2023/05/17 00:45:37;;;;;;;;;;;11.80;99.50;12.20;99593.00;;;;337540;28;89611;-95
2023/05/17 00:45:50;;;;;;;;;;;11.90;99.80;12.20;99593.00;;;;335244;28;82628;-94
2023/05/17 00:46:02;;;;;;;;;;;11.90;99.50;12.20;99598.00;;;;337734;28;88001;-95
2023/05/17 00:46:15;;;;;;;;;;;11.90;99.50;12.20;99589.00;;;;344787;28;82501;-95
2023/05/17 00:46:27;;;;;;;;;;;11.90;99.50;12.20;99601.00;;;;343261;28;90469;-93
2023/05/17 00:46:39;;;;;;;;;;;11.90;99.60;12.20;99597.00;;;;336912;29;82531;-94
2023/05/17 00:46:51;;;;;;;;;;;11.90;99.60;12.20;99594.00;;;;333916;28;91780;-95
2023/05/17 00:47:03;;;;;;;;;;;11.90;99.60;12.20;99593.00;;;;337081;29;82546;-95
2023/05/17 00:47:14;;;;;;;;;;;11.90;99.60;12.20;99597.00;;;;336124;29;90914;-94
2023/05/17 00:47:27;;;;;;;;;;;11.90;99.60;12.20;99594.00;;;;336358;29;82574;-95
2023/05/17 00:47:40;;;;;;;;;;;11.80;99.50;12.20;99599.00;;;;337539;28;90283;-95
2023/05/17 00:47:53;;;;;;;;;;;11.90;99.60;12.20;99593.00;;;;337618;28;82571;-95
2023/05/17 00:48:06;;;;;;;;;;;11.80;99.50;12.20;99593.00;;;;335644;28;89539;-94
2023/05/17 00:48:24;;;;;;;;;;;11.90;99.60;12.20;99598.00;;;;336161;29;82364;-94
2023/05/17 00:48:36;;;;;;;;;;;11.90;99.60;12.20;99590.00;;;;334729;29;90143;-94
2023/05/17 00:48:48;;;;;;;;;;;11.80;99.50;12.20;99604.00;;;;336461;28;82567;-93
2023/05/17 00:49:00;;;;;;;;;;;11.90;99.50;12.20;99597.00;;;;337179;28;90537;-93
2023/05/17 00:49:13;;;;;;;;;;;11.90;99.60;12.20;99592.00;;;;334985;29;82481;-95
2023/05/17 00:49:25;;;;;;;;;;;11.90;99.60;12.20;99599.00;;;;333227;29;90456;-94
2023/05/17 00:49:37;;;;;;;;;;;11.90;99.60;12.20;99589.00;;;;336431;29;82514;-94
2023/05/17 00:49:50;;;;;;;;;;;11.90;99.60;12.20;99604.00;;;;335759;28;90694;-95
2023/05/17 00:50:03;;;;;;;;;;;11.90;99.70;12.20;99593.00;;;;335546;29;82465;-96
2023/05/17 00:50:15;;;;;;;;;;;11.90;99.60;12.20;99591.00;;;;333733;28;90556;-95
2023/05/17 00:50:27;;;;;;;;;;;11.90;99.70;12.20;99597.00;;;;336834;28;82576;-96
2023/05/17 00:50:39;;;;;;;;;;;11.90;99.60;12.20;99596.00;;;;333923;28;88400;-95
2023/05/17 00:50:53;;;;;;;;;;;11.90;99.60;12.20;99602.00;;;;335428;29;82449;-95
2023/05/17 00:51:06;;;;;;;;;;;11.90;99.60;12.20;99601.00;;;;334958;28;88220;-95
2023/05/17 00:51:18;;;;;;;;;;;11.80;99.50;12.20;99600.00;;;;335567;29;82451;-94
2023/05/17 00:51:30;;;;;;;;;;;11.90;99.60;12.20;99596.00;;;;335018;29;91817;-95
2023/05/17 00:51:43;;;;;;;;;;;11.90;99.50;12.20;99590.00;;;;335416;29;82513;-95
2023/05/17 00:51:55;;;;;;;;;;;11.90;99.50;12.20;99587.00;;;;335131;29;91511;-94
2023/05/17 00:52:07;;;;;;;;;;;11.90;99.50;12.10;99594.00;;;;335580;29;82582;-95
2023/05/17 00:52:19;;;;;;;;;;;11.80;99.50;12.20;99599.00;;;;336870;28;90114;-95
2023/05/17 00:52:31;;;;;;;;;;;11.90;99.50;12.20;99593.00;;;;334052;29;82525;-94
2023/05/17 00:52:44;;;;;;;;;;;11.80;99.50;12.10;99609.00;;;;334066;28;89457;-94
2023/05/17 00:52:56;;;;;;;;;;;11.90;99.60;12.20;99600.00;;;;335588;28;82558;-95
2023/05/17 00:53:08;;;;;;;;;;;11.90;99.50;12.10;99600.00;;;;335002;29;92195;-94
2023/05/17 00:53:20;;;;;;;;;;;11.80;99.50;12.10;99600.00;;;;335242;28;82512;-96
2023/05/17 00:53:33;;;;;;;;;;;11.80;99.40;12.10;99604.00;;;;336236;28;89452;-95
2023/05/17 00:53:45;;;;;;;;;;;11.80;99.50;12.10;99595.00;;;;337816;28;82584;-94
2023/05/17 00:53:57;;;;;;;;;;;11.80;99.40;12.00;99589.00;;;;335037;29;92225;-94
2023/05/17 00:54:09;;;;;;;;;;;11.80;99.40;12.10;99604.00;;;;334218;28;82563;-95
2023/05/17 00:54:21;;;;;;;;;;;11.80;99.50;12.00;99603.00;;;;335900;28;91496;-95
2023/05/17 00:54:33;;;;;;;;;;;11.80;99.50;12.10;99600.00;;;;336812;28;82378;-93
2023/05/17 00:54:45;;;;;;;;;;;11.80;99.50;12.00;99598.00;;;;335008;29;90363;-95
2023/05/17 00:54:57;;;;;;;;;;;11.80;99.60;12.10;99591.00;;;;336838;29;83406;-94
2023/05/17 00:55:09;;;;;;;;;;;11.80;99.60;12.10;99589.00;;;;333507;29;91783;-96
2023/05/17 00:55:21;;;;;;;;;;;11.80;99.50;12.10;99599.00;;;;337986;28;82430;-94
2023/05/17 00:55:33;;;;;;;;;;;11.80;99.60;12.10;99604.00;;;;336173;28;90443;-96
2023/05/17 00:55:45;;;;;;;;;;;11.80;99.50;12.00;99596.00;;;;335362;29;83299;-94
2023/05/17 00:55:57;;;;;;;;;;;11.80;99.50;12.10;99597.00;;;;333855;29;91111;-94
2023/05/17 00:56:08;;;;;;;;;;;11.70;99.50;12.10;99595.00;;;;335419;29;82450;-95
2023/05/17 00:56:20;;;;;;;;;;;11.70;99.60;12.10;99598.00;;;;334716;28;89586;-94
2023/05/17 00:56:32;;;;;;;;;;;11.70;99.60;12.10;99599.00;;;;333991;29;82626;-95
2023/05/17 00:56:44;;;;;;;;;;;11.80;99.60;12.00;99586.00;;;;334949;29;90622;-94
2023/05/17 00:56:58;;;;;;;;;;;11.70;99.50;12.10;99586.00;;;;340932;28;82502;-96
2023/05/17 00:57:10;;;;;;;;;;;11.70;99.60;12.10;99597.00;;;;341777;28;91696;-94
2023/05/17 00:57:21;;;;;;;;;;;11.70;99.60;12.10;99589.00;;;;334102;29;82475;-94
2023/05/17 00:57:34;;;;;;;;;;;11.70;99.60;12.10;99602.00;;;;332376;29;90686;-94
2023/05/17 00:57:46;;;;;;;;;;;11.80;99.60;12.00;99601.00;;;;335396;29;82515;-94
2023/05/17 00:57:59;;;;;;;;;;;11.70;99.60;12.10;99604.00;;;;333914;29;87688;-94
2023/05/17 00:58:11;;;;;;;;;;;11.70;99.60;12.10;99598.00;;;;336902;28;83700;-94
2023/05/17 00:58:23;;;;;;;;;;;11.80;99.90;12.10;99592.00;;;;335102;28;89415;-94
2023/05/17 00:58:35;;;;;;;;;;;11.80;99.70;12.10;99593.00;;;;336717;28;82573;-94
2023/05/17 00:58:47;;;;;;;;;;;11.80;99.70;12.10;99604.00;;;;335262;29;90652;-95
2023/05/17 00:58:59;;;;;;;;;;;11.70;99.60;12.10;99599.00;;;;336933;28;82550;-94
2023/05/17 00:59:12;;;;;;;;;;;11.70;99.60;12.10;99603.00;;;;335063;29;90798;-94
2023/05/17 00:59:25;;;;;;;;;;;11.80;99.60;12.10;99606.00;;;;335626;29;82458;-95
2023/05/17 00:59:37;;;;;;;;;;;11.70;99.60;12.10;99592.00;;;;337561;28;90419;-94
2023/05/17 00:59:49;;;;;;;;;;;11.70;99.60;12.00;99595.00;;;;334245;29;83238;-95
2023/05/17 01:00:01;;;;;;;;;;;11.70;99.60;12.00;99602.00;;;;333760;29;90933;-94
2023/05/17 01:00:13;;;;;;;;;;;11.70;99.60;12.10;99609.00;;;;336568;28;82611;-93
2023/05/17 01:00:25;;;;;;;;;;;11.70;99.60;12.10;99589.00;;;;333587;29;90607;-94